Christoph Krause

Recruteur - FC Augsburg
20 Janv 2028
Jeudi
Processus

Personnalité

Adaptabilité (11) Ambition (9) Controverse (11) Loyauté (4) Pression (16) Professionnalisme (7) Sportivité (8) Tempérament (5)

Profil

Style d'entraînement Démocratique
Diplôme National A
Détermination 5
Gestion des joueurs 8
Motivation 5
Discipline 6
Satisfaction professionnelle
100%
Fatigue
0%
Rôle Recruteur
Salaire 69.6K p/s
Contrat 14.03.2028

Performance

Comportement Bon
Efficacité de l'entraînement
43%
Développement des joueurs
50%
Prévention des blessures
40%
Mise en place tactique
40%

Événements récents

Négociation de contrat entamée maintenant
En formation continue maintenant
A participé à une réunion de recrutement maintenant
Négociation de contrat entamée maintenant
En formation continue maintenant
En formation continue 7j
Négociation de contrat entamée 7j
En formation continue 7j

Suivi en cours

101
Joueur Club Statut Capacité Confiance Observé Dernière observation Dernier vote
Jobe Bellingham Köln Actif 138 / 147 40% 5 30.05.2027 -
Izan Merino Málaga Actif 121 / 119 40% 4 30.05.2027 -
Christ Inao Oulaï Fiorentina Actif 132 / 130 40% 3 30.05.2027 -
José Pachuca Puebla Actif 106 / 110 40% 4 29.05.2027 -
Juan Giménez Celta Actif 116 / 118 40% 2 26.05.2027 -
Percy Jali Free State Stars Actif 88 / 104 40% 6 24.05.2027 -
Daniel Vernattus Metalist Actif 90 / 92 40% 1 24.05.2027 -
Arjan Malić Sturm Graz Actif 123 / 115 40% 4 22.05.2027 -
Samuele di Benedetto Bari Actif 114 / 125 40% 3 22.05.2027 -
Yusi Alavés Actif 129 / 137 40% 7 18.05.2027 -
Davide Bartesaghi AC Milan Actif 132 / 142 40% 3 17.05.2027 -
João Simões Sporting CP Actif 129 / 146 40% 4 17.05.2027 -
Marc Bernal Real Sociedad Actif 145 / 142 40% 3 16.05.2027 -
Gonçalo Oliveira Benfica Actif 106 / 108 40% 1 16.05.2027 -
Kevin Vazquez Cruz Azul Actif 139 / 153 40% 6 15.05.2027 -
Toni Tamarit Alverca Actif 116 / 112 40% 2 15.05.2027 -
Martim Cunha Porto Actif 103 / 108 40% 2 11.05.2027 -
Joel McGregor Swindon Town Actif 95 / 100 40% 1 11.05.2027 -
Kees Smit AZ Actif 140 / 151 40% 3 09.05.2027 -
Matías Gómez Granada Actif 111 / 118 40% 2 09.05.2027 -
Jan Bürger Gillingham Actif 111 / 122 40% 3 02.05.2027 -
Riley Owen Trento Actif 104 / 104 40% 2 02.05.2027 -
Givairo Read Feyenoord Actif 140 / 152 40% 3 01.05.2027 -
Daniel Costa Sporting CP Actif 91 / 101 40% 1 28.04.2027 -
Christos Mouzakitis Hull City Actif 133 / 128 40% 2 27.04.2027 -
Josh King Chelsea Actif 140 / 152 40% 3 26.04.2027 -
Zane Albarus Cambridge United Actif 98 / 96 40% 2 23.04.2027 -
Cheveyo Tsawa Club Brugge Actif 113 / 136 40% 2 07.04.2027 -
Keagan Tau Ajax Cape Town Actif 86 / 87 40% 1 07.04.2027 -
Lucas Høgsberg RC Strasbourg Actif 134 / 149 40% 3 04.04.2027 -
Caleb Yirenkyi Coventry City Actif 133 / 132 40% 2 31.03.2027 -
Tiago Freitas Benfica Actif 112 / 119 40% 1 31.03.2027 -
Jofre Torrents Ajax Actif 124 / 127 40% 3 26.03.2027 -
David Ozoh Derby County Actif 118 / 121 40% 1 24.03.2027 -
Bernardo Lima Porto Actif 96 / 104 40% 1 18.03.2027 -
Ronwen Phiri Platinum Stars Actif 100 / 113 40% 1 18.03.2027 -
Ernie Weaver AFC Wimbledon Actif 107 / 120 40% 3 15.03.2027 -
Jonas Harder Basel Actif 114 / 116 40% 1 15.03.2027 -
Salvador Blopá Casa Pia Actif 110 / 114 40% 1 15.03.2027 -
Dylan Lawlor Cardiff City Actif 117 / 130 40% 1 09.03.2027 -
James Dornelly Peterborough United Actif 104 / 102 40% 1 07.03.2027 -
Matvey Kislyak CSKA Moscow Actif 134 / 149 40% 3 02.03.2027 -
Vasilije Novičić IMT Actif 98 / 100 40% 1 23.02.2027 -
Louis Leroux FC Nantes Actif 129 / 121 40% 1 23.02.2027 -
Pape Diong Westerlo Actif 113 / 125 40% 1 22.02.2027 -
Jack Hinshelwood Brighton Actif 145 / 139 40% 1 19.02.2027 -
Noah Nartey Olympique Lyonnais Actif 132 / 143 40% 1 03.02.2027 -
Ousmane Diomande Nottingham Forest Actif 149 / 145 40% 4 31.12.2026 -
José Ángel Carmona Sevilla Actif 151 / 151 40% 2 30.12.2026 -
Víctor Gómez Braga Actif 141 / 143 40% 1 30.12.2026 -
Renato Veiga Villarreal Actif 147 / 144 40% 1 30.12.2026 -
Mika Mármol Feyenoord Actif 141 / 132 40% 2 29.12.2026 -
Christian Krasnodar Actif 140 / 134 40% 2 29.12.2026 -
André Wolverhampton Actif 141 / 154 40% 2 27.12.2026 -
Hector Ramirez Newcastle United Actif 152 / 162 40% 1 27.12.2026 -
Nicolò Rovella Lazio Actif 155 / 149 40% 1 27.12.2026 -
Iván Martín Racing Santander Actif 149 / 140 40% 3 26.12.2026 -
Ilaix Moriba Celta Actif 153 / 149 40% 1 26.12.2026 -
Adam Wharton Crystal Palace Actif 154 / 150 40% 4 25.12.2026 -
Nico González Newcastle United Actif 165 / 155 40% 2 25.12.2026 -
Eric Martel Mainz 05 Actif 143 / 149 40% 2 24.12.2026 -
Curtis Jones Inter Actif 153 / 150 40% 2 24.12.2026 -
Rico Lewis Manchester City Actif 144 / 148 40% 2 22.12.2026 -
Nathan Collins Brentford Actif 146 / 157 40% 1 22.12.2026 -
Pol Lozano Espanyol Actif 140 / 138 40% 1 22.12.2026 -
Fran García Betis Actif 149 / 143 40% 2 20.12.2026 -
Quinten Timber Crystal Palace Actif 153 / 151 40% 3 20.12.2026 -
Sven Botman Newcastle United Actif 156 / 146 40% 1 19.12.2026 -
Nnamdi Collins Eintracht Frankfurt Actif 136 / 137 40% 1 19.12.2026 -
Tyrell Malacia Monaco Actif 134 / 138 40% 3 16.12.2026 -
Angelo Stiller VfB Stuttgart Actif 150 / 157 40% 2 16.12.2026 -
Bart van Rooij Twente Actif 133 / 124 40% 1 16.12.2026 -
Tariq Lamptey Queens Park Rangers Actif 132 / 132 40% 1 13.12.2026 -
Tyler Adams Bournemouth Actif 153 / 140 40% 1 13.12.2026 -
Aaron Hickey Brentford Actif 140 / 142 40% 2 12.12.2026 -
Philipp Treu SC Freiburg Actif 132 / 125 40% 1 12.12.2026 -
Pape Guèye Villarreal Actif 150 / 144 40% 2 11.12.2026 -
Loïc Badé Bayer Leverkusen Actif 160 / 162 40% 1 10.12.2026 -
Edmond Tapsoba Bayer Leverkusen Actif 152 / 141 40% 2 07.12.2026 -
Aitor Paredes Athletic Bilbao Actif 150 / 137 40% 1 07.12.2026 -
Adrien Truffert Bournemouth Actif 146 / 157 40% 2 05.12.2026 -
Nicolas Seiwald RB Leipzig Actif 146 / 153 40% 1 05.12.2026 -
Tino Livramento Newcastle United Actif 159 / 150 40% 1 03.12.2026 -
Michael Kayode Brentford Actif 149 / 158 40% 1 02.12.2026 -
Kike Salas Sevilla Actif 137 / 152 40% 1 02.12.2026 -
Ryan Sessegnon Fulham Actif 150 / 137 40% 1 01.12.2026 -
Arnau Martínez Valencia Actif 144 / 149 40% 1 29.11.2026 -
Florentino Luís Ipswich Town Actif 142 / 146 40% 1 29.11.2026 -
Vanderson Monaco Actif 141 / 153 40% 1 28.11.2026 -
Josha Vagnoman VfB Stuttgart Actif 139 / 143 40% 1 28.11.2026 -
Dani Vivian Athletic Bilbao Actif 154 / 145 40% 1 26.11.2026 -
Noah Sadiki Sunderland Actif 146 / 153 40% 1 26.11.2026 -
Gavi Barcelona Actif 159 / 166 40% 1 26.11.2026 -
Willian Pacho Paris Saint-Germain Actif 164 / 152 40% 1 21.11.2026 -
Kevin Lomónaco Elche Actif 130 / 125 40% 1 21.11.2026 -
Elliot Anderson Manchester City Actif 149 / 143 40% 1 20.11.2026 -
Javi Rodríguez Celta Actif 148 / 150 40% 1 20.11.2026 -
Pedro Porro Tottenham Actif 150 / 143 40% 1 08.11.2026 -
Diogo Leite Union Berlin Actif 139 / 127 40% 1 07.09.2026 -
Jorrel Hato Chelsea Actif 141 / 148 40% 1 01.08.2026 -
Fodé Sylla Sion Actif 112 / 113 40% 1 01.08.2026 -